首页
METAR-TAF:

METAR-TAF

机场 :

Enfidha-Hammamet

哈马马特, 突尼斯

纬度: 36-04-34N, 经度: 10-26-19E, 海拔: 6米

当前天气观测

该预报发布于17分钟前的16:00 UTC
风速11节,风向东转东北
温度 18°C
湿度 73%
气压 1017 hPa
能见度10公里或以上
散云层高于2600英尺
散云层高于3300英尺

METAR: DTNH 081600Z 07011KT 9999 SCT026 SCT033 18/13 Q1017 NOSIG

时间: 17:17 (16:17 UTC)

预报

该预报发布于5小时和17分钟前的11:00 UTC
预报有效从08日的 12点(UTC)到 09日的 12点(UTC)
风速8节,风向南转西南
能见度10公里或以上
少量云层高于1300英尺
短暂存在
从 08日的 16点(UTC)到 08日的 22点(UTC)
能見度: 4000
少量云层高于2300英尺, 塔状积云.
阵雨
成为
从 09日的 03点(UTC)到 09日的 05点(UTC)
风速17节,风向北转西北

TAF: DTNH 081100Z 0812/0912 21008KT 9999 FEW013 TEMPO 0816/0822 4000 SHRA FEW023TCU BECMG 0903/0905 33017KT

超过4000个机场的气象观测和天气预报(METAR&TAF报告)。

可查询的气象台以黄色和红色小点在地图上表示。

将鼠标移到小点上方,可查看气象台名称。

然后点击查看天气观测和预报。

如需切换地图:点击带黑十字的绿色按钮放大地图;点击带横线的绿色按钮缩小地图;或者点击绿色箭头查看邻近地区的地图。


METAR-TAF: